Time;durP1;ratioP1;P1;durP2;ratioP2;P2;SDS_P1;SDS_P2;PMS_P1;PMS_P2;Temp;Humidity;BMP_temperature;BMP_pressure;BME280_temperature;BME280_humidity;BME280_pressure;Samples;Min_cycle;Max_cycle;Signal;HPM_P1;HPM_P2
2021/01/26 00:00:34;;;;;;;19.02;8.52;;;;;;;1.67;79.68;99596.81;4975189;28;20121;-34
2021/01/26 00:03:03;;;;;;;17.30;7.93;;;;;;;1.65;79.57;99592.44;4974070;28;20046;-34
2021/01/26 00:05:34;;;;;;;15.80;7.32;;;;;;;1.62;80.01;99592.31;4974320;28;20045;-34
2021/01/26 00:08:03;;;;;;;15.80;7.00;;;;;;;1.63;79.58;99605.16;4975544;28;20043;-34
2021/01/26 00:10:31;;;;;;;17.60;8.90;;;;;;;1.63;79.46;99607.69;4975255;28;20043;-34
2021/01/26 00:12:59;;;;;;;19.60;8.52;;;;;;;1.61;79.72;99619.53;4975476;28;20042;-34
2021/01/26 00:15:25;;;;;;;15.73;7.82;;;;;;;1.62;79.97;99610.19;4974782;28;20050;-34
2021/01/26 00:17:55;;;;;;;16.20;8.35;;;;;;;1.61;79.69;99611.00;4974686;28;20035;-34
2021/01/26 00:20:25;;;;;;;20.42;8.40;;;;;;;1.63;80.00;99610.25;4975521;28;20097;-34
2021/01/26 00:22:54;;;;;;;15.13;8.10;;;;;;;1.67;79.69;99612.16;4957726;28;20039;-34
2021/01/26 00:25:32;;;;;;;23.25;9.13;;;;;;;1.65;79.85;99616.31;4973865;28;20174;-34
2021/01/26 00:27:58;;;;;;;18.77;8.68;;;;;;;1.66;79.55;99624.84;4974979;28;20113;-34
2021/01/26 00:30:26;;;;;;;17.25;7.53;;;;;;;1.61;79.88;99622.09;4975023;28;20169;-34
2021/01/26 00:33:01;;;;;;;18.10;8.70;;;;;;;1.63;79.88;99620.47;4975103;28;20039;-34
2021/01/26 00:35:30;;;;;;;16.10;6.40;;;;;;;1.63;79.85;99622.16;4975199;28;20047;-34
2021/01/26 00:38:01;;;;;;;18.73;8.18;;;;;;;1.59;79.51;99633.03;4973757;28;20061;-34
2021/01/26 00:40:28;;;;;;;18.38;7.60;;;;;;;1.60;79.74;99627.13;4973355;28;20482;-34
2021/01/26 00:42:57;;;;;;;13.68;7.03;;;;;;;1.62;79.76;99625.53;4973472;28;20049;-34
2021/01/26 00:45:24;;;;;;;16.92;7.22;;;;;;;1.64;80.01;99623.88;4957917;28;20043;-34
2021/01/26 00:47:56;;;;;;;12.80;7.85;;;;;;;1.65;79.90;99623.09;4974015;28;20031;-34
2021/01/26 00:50:27;;;;;;;11.20;6.40;;;;;;;1.63;80.12;99632.38;4975316;28;20085;-33
2021/01/26 00:52:58;;;;;;;15.60;7.60;;;;;;;1.60;79.63;99629.69;4974740;28;20475;-34
2021/01/26 00:55:24;;;;;;;10.43;6.43;;;;;;;1.66;80.12;99627.38;4973390;28;20143;-34
2021/01/26 00:57:53;;;;;;;14.23;6.78;;;;;;;1.66;80.03;99627.38;4973446;28;20043;-34
2021/01/26 01:00:31;;;;;;;16.95;6.80;;;;;;;1.65;79.93;99635.84;4974981;28;20038;-34
2021/01/26 01:02:59;;;;;;;14.75;6.70;;;;;;;1.66;79.61;99627.38;4974518;28;20473;-34
2021/01/26 01:05:27;;;;;;;17.38;7.68;;;;;;;1.65;80.29;99635.84;4974458;28;20031;-34
2021/01/26 01:08:01;;;;;;;18.95;7.75;;;;;;;1.63;79.64;99632.38;4974654;28;20030;-34
2021/01/26 01:10:41;;;;;;;19.35;8.02;;;;;;;1.61;79.86;99642.50;4973874;28;20031;-34
2021/01/26 01:13:10;;;;;;;10.63;6.10;;;;;;;1.63;79.91;99650.28;4974594;28;20055;-34
2021/01/26 01:15:37;;;;;;;19.48;6.57;;;;;;;1.63;79.87;99652.81;4957073;28;20491;-35
2021/01/26 01:18:03;;;;;;;14.18;6.40;;;;;;;1.64;79.87;99652.88;4974510;28;20038;-35
2021/01/26 01:20:31;;;;;;;20.52;7.07;;;;;;;1.64;79.83;99659.66;4974543;28;20110;-48
2021/01/26 01:22:57;;;;;;;26.63;7.40;;;;;;;1.64;80.14;99664.75;4974470;28;20027;-35
2021/01/26 01:25:28;;;;;;;15.32;7.32;;;;;;;1.62;79.96;99669.81;4974420;28;20042;-34
2021/01/26 01:27:56;;;;;;;10.93;6.28;;;;;;;1.62;79.49;99669.81;4957521;28;20038;-34
2021/01/26 01:30:26;;;;;;;15.55;6.15;;;;;;;1.63;80.30;99663.03;4974333;28;20043;-34
2021/01/26 01:32:54;;;;;;;13.88;6.03;;;;;;;1.61;79.70;99678.28;4973904;28;20046;-34
2021/01/26 01:35:20;;;;;;;18.17;7.60;;;;;;;1.62;80.14;99666.41;4974389;28;20042;-34
2021/01/26 01:37:49;;;;;;;12.07;5.90;;;;;;;1.62;79.84;99667.25;4974014;28;20038;-34
2021/01/26 01:40:26;;;;;;;14.63;5.63;;;;;;;1.65;79.95;99669.06;4976992;28;20038;-34
2021/01/26 01:42:51;;;;;;;18.38;6.60;;;;;;;1.64;80.05;99677.53;4978224;28;20063;-34
2021/01/26 01:45:22;;;;;;;13.40;6.25;;;;;;;1.63;79.93;99680.94;4978057;28;20062;-34
2021/01/26 01:47:59;;;;;;;9.63;5.95;;;;;;;1.61;80.10;99678.28;4978231;28;20031;-34
2021/01/26 01:50:35;;;;;;;12.32;5.95;;;;;;;1.62;79.75;99674.06;4978176;28;20042;-34
2021/01/26 01:53:24;;;;;;;12.38;6.22;;;;;;;1.64;79.78;99685.19;4976786;28;20026;-34
2021/01/26 01:56:16;;;;;;;14.32;6.28;;;;;;;1.64;79.84;99690.31;4978220;28;20047;-34
2021/01/26 01:58:47;;;;;;;19.90;6.18;;;;;;;1.64;79.56;99692.88;4970528;28;20101;-34
2021/01/26 02:01:16;;;;;;;13.65;6.35;;;;;;;1.62;79.65;99690.25;4977815;28;20043;-34
2021/01/26 02:03:47;;;;;;;18.15;6.75;;;;;;;1.59;80.00;99685.00;4978058;28;20042;-34
2021/01/26 02:06:17;;;;;;;15.30;7.05;;;;;;;1.65;79.92;99700.63;4977743;28;20038;-34
2021/01/26 02:09:04;;;;;;;13.25;6.03;;;;;;;1.60;79.45;99696.09;4977947;28;20106;-34
2021/01/26 02:11:31;;;;;;;15.70;5.05;;;;;;;1.61;79.79;99700.41;4977774;28;20031;-34
2021/01/26 02:14:10;;;;;;;12.32;5.45;;;;;;;1.59;79.74;99702.03;4960558;28;20050;-34
2021/01/26 02:17:11;;;;;;;16.50;6.25;;;;;;;1.58;80.12;99702.81;4977326;28;20034;-34
2021/01/26 02:20:14;;;;;;;14.95;6.43;;;;;;;1.62;79.95;99710.69;4877654;28;20082;-34
2021/01/26 02:23:10;;;;;;;16.17;5.72;;;;;;;1.60;79.46;99703.78;4960151;28;20039;-34
2021/01/26 02:25:57;;;;;;;17.90;5.80;;;;;;;1.58;79.85;99710.47;4977340;28;20483;-34
2021/01/26 02:28:47;;;;;;;14.50;6.80;;;;;;;1.61;79.74;99713.19;4976317;28;20402;-34
2021/01/26 02:31:32;;;;;;;10.50;5.20;;;;;;;1.60;79.80;99711.44;4977058;28;20130;-34
2021/01/26 02:34:37;;;;;;;15.18;5.90;;;;;;;1.59;79.94;99715.66;4977411;28;20085;-34
2021/01/26 02:37:24;;;;;;;15.23;5.88;;;;;;;1.60;79.76;99719.09;4956334;28;20079;-33
2021/01/26 02:40:01;;;;;;;14.43;5.30;;;;;;;1.61;80.15;99718.28;4977610;28;20042;-32
2021/01/26 02:42:51;;;;;;;16.00;6.15;;;;;;;1.62;79.76;99717.50;4977275;28;20031;-34
2021/01/26 02:45:25;;;;;;;13.32;5.47;;;;;;;1.59;80.04;99727.56;4977086;28;20037;-34
2021/01/26 02:48:06;;;;;;;10.75;5.65;;;;;;;1.57;79.86;99724.91;4977012;28;20035;-34
2021/01/26 02:50:34;;;;;;;18.00;6.20;;;;;;;1.57;79.68;99731.72;4975772;28;20081;-34
2021/01/26 02:53:14;;;;;;;17.75;5.38;;;;;;;1.61;79.74;99733.63;4976428;28;20066;-34
2021/01/26 02:56:09;;;;;;;14.32;5.70;;;;;;;1.60;79.85;99742.09;4976906;28;20046;-34
2021/01/26 02:58:40;;;;;;;12.85;5.70;;;;;;;1.60;79.79;99736.97;4941080;28;20138;-34
2021/01/26 03:01:07;;;;;;;13.77;5.50;;;;;;;1.57;79.48;99742.81;4976350;28;20035;-34
2021/01/26 03:03:37;;;;;;;16.95;6.30;;;;;;;1.61;79.87;99743.84;4976143;28;20517;-34
2021/01/26 03:06:10;;;;;;;17.85;5.80;;;;;;;1.63;79.74;99742.25;4976622;28;20510;-34
2021/01/26 03:08:51;;;;;;;12.60;6.13;;;;;;;1.60;79.79;99739.53;4976239;28;20038;-34
2021/01/26 03:11:26;;;;;;;14.27;5.88;;;;;;;1.59;79.85;99746.31;4959707;28;20039;-34
2021/01/26 03:14:01;;;;;;;11.07;5.32;;;;;;;1.62;79.80;99743.03;4976750;28;20138;-34
2021/01/26 03:16:30;;;;;;;18.80;6.07;;;;;;;1.57;80.01;99755.56;4959085;28;20434;-34
2021/01/26 03:19:07;;;;;;;10.60;5.30;;;;;;;1.59;79.81;99758.22;4976402;28;20031;-34
2021/01/26 03:21:36;;;;;;;14.68;5.22;;;;;;;1.58;79.81;99753.91;4976197;28;20137;-34
2021/01/26 03:24:09;;;;;;;13.10;5.55;;;;;;;1.56;79.47;99758.06;4976579;28;20132;-34
2021/01/26 03:26:42;;;;;;;11.30;5.00;;;;;;;1.55;79.78;99759.75;4976570;28;20034;-34
2021/01/26 03:29:15;;;;;;;7.88;4.88;;;;;;;1.56;79.89;99773.41;4976465;28;20034;-35
2021/01/26 03:31:50;;;;;;;15.13;5.82;;;;;;;1.59;79.85;99768.44;4976259;28;20040;-45
2021/01/26 03:34:22;;;;;;;11.25;4.80;;;;;;;1.58;79.85;99769.25;4976640;28;20042;-41
2021/01/26 03:36:51;;;;;;;13.15;5.32;;;;;;;1.56;79.48;99770.84;4976310;28;20077;-34
2021/01/26 03:39:20;;;;;;;12.50;5.18;;;;;;;1.55;79.55;99769.97;4959076;28;20434;-34
2021/01/26 03:41:47;;;;;;;11.40;4.78;;;;;;;1.56;79.59;99778.50;4975558;28;20093;-34
2021/01/26 03:44:16;;;;;;;12.65;4.95;;;;;;;1.61;79.73;99782.16;4975978;28;20517;-34
2021/01/26 03:46:50;;;;;;;16.35;5.50;;;;;;;1.55;79.64;99784.41;4975707;28;20049;-34
2021/01/26 03:49:31;;;;;;;17.15;4.95;;;;;;;1.55;79.71;99772.53;4958974;28;20401;-34
2021/01/26 03:52:09;;;;;;;10.98;4.38;;;;;;;1.56;79.61;99783.63;4975600;28;20114;-34
2021/01/26 03:54:46;;;;;;;10.30;4.80;;;;;;;1.56;79.72;99793.84;4975810;28;20071;-34
2021/01/26 03:57:30;;;;;;;14.65;5.85;;;;;;;1.56;79.55;99788.72;4976211;28;20569;-34
2021/01/26 04:00:21;;;;;;;11.50;5.00;;;;;;;1.55;79.56;99799.75;4958596;28;20053;-34
2021/01/26 04:03:01;;;;;;;12.80;4.70;;;;;;;1.52;79.89;99801.34;4975504;28;20126;-34
2021/01/26 04:05:37;;;;;;;15.63;5.40;;;;;;;1.56;79.61;99798.94;4975051;28;20047;-34
2021/01/26 04:08:29;;;;;;;15.20;5.03;;;;;;;1.56;79.48;99801.50;4975426;28;20049;-34
2021/01/26 04:11:35;;;;;;;13.00;4.93;;;;;;;1.54;79.54;99813.31;4952372;28;20055;-34
2021/01/26 04:14:03;;;;;;;15.35;4.30;;;;;;;1.55;79.52;99804.84;4968144;28;20212;-33
2021/01/26 04:16:58;;;;;;;7.50;4.22;;;;;;;1.52;79.33;99811.56;4975687;28;20038;-34
2021/01/26 04:19:31;;;;;;;20.10;6.50;;;;;;;1.52;79.52;99816.66;4968133;28;20403;-34
2021/01/26 04:21:57;;;;;;;9.82;4.45;;;;;;;1.55;79.78;99813.41;4974781;28;20121;-34
2021/01/26 04:24:33;;;;;;;10.98;4.63;;;;;;;1.56;79.34;99816.81;4974045;28;20042;-34
2021/01/26 04:27:03;;;;;;;11.70;4.03;;;;;;;1.54;79.44;99814.22;4974391;28;20039;-34
2021/01/26 04:29:39;;;;;;;12.90;3.80;;;;;;;1.55;79.45;99817.63;4975445;28;20074;-34
2021/01/26 04:32:07;;;;;;;11.75;4.05;;;;;;;1.54;79.46;99832.09;4957705;28;20035;-34
2021/01/26 04:34:38;;;;;;;14.50;4.40;;;;;;;1.54;79.53;99839.75;4974510;28;20442;-34
2021/01/26 04:37:11;;;;;;;14.18;4.40;;;;;;;1.55;79.64;99838.06;4975312;28;20038;-34
2021/01/26 04:39:41;;;;;;;11.52;4.18;;;;;;;1.52;79.48;99841.34;4975096;28;20042;-34
2021/01/26 04:42:25;;;;;;;10.40;4.60;;;;;;;1.54;79.07;99837.19;4973876;28;20059;-34
2021/01/26 04:45:01;;;;;;;14.48;4.70;;;;;;;1.52;79.19;99843.91;4975244;28;20043;-35
2021/01/26 04:47:29;;;;;;;12.55;4.35;;;;;;;1.55;79.59;99840.63;4974858;28;20046;-34
2021/01/26 04:50:12;;;;;;;9.93;3.88;;;;;;;1.51;79.26;99855.78;4974527;28;20038;-34
2021/01/26 04:52:52;;;;;;;13.50;4.80;;;;;;;1.51;79.24;99853.22;4957219;28;20031;-34
2021/01/26 04:55:39;;;;;;;10.23;4.20;;;;;;;1.51;79.29;99853.22;4975089;28;20356;-34
2021/01/26 04:58:13;;;;;;;10.65;4.35;;;;;;;1.50;79.29;99856.59;4975029;28;20117;-34
2021/01/26 05:01:15;;;;;;;15.30;5.25;;;;;;;1.51;79.41;99852.38;4974826;28;20038;-34
2021/01/26 05:04:12;;;;;;;11.93;4.28;;;;;;;1.55;79.63;99858.50;4973498;28;20039;-34
2021/01/26 05:06:51;;;;;;;15.65;4.78;;;;;;;1.50;79.31;99854.03;4970177;28;20054;-34
2021/01/26 05:09:26;;;;;;;13.80;5.05;;;;;;;1.49;79.28;99857.38;4974359;28;20035;-34
2021/01/26 05:11:54;;;;;;;9.15;3.70;;;;;;;1.52;79.68;99852.44;4974718;28;20063;-34
2021/01/26 05:14:29;;;;;;;8.75;3.90;;;;;;;1.54;79.38;99861.84;4975788;28;20054;-34
2021/01/26 05:17:03;;;;;;;11.45;3.95;;;;;;;1.52;79.57;99877.97;4977660;28;20035;-34
2021/01/26 05:19:37;;;;;;;14.30;4.47;;;;;;;1.51;79.36;99881.34;4978846;28;20039;-34
2021/01/26 05:22:24;;;;;;;13.25;4.70;;;;;;;1.51;79.49;99883.03;4978132;28;20035;-34
2021/01/26 05:25:14;;;;;;;15.35;5.10;;;;;;;1.49;79.42;99876.97;4960926;28;20053;-34
2021/01/26 05:27:43;;;;;;;13.43;5.07;;;;;;;1.49;79.54;99879.50;4976957;28;20039;-34
2021/01/26 05:30:32;;;;;;;10.52;4.53;;;;;;;1.49;79.50;99876.97;4978259;28;20030;-34
2021/01/26 05:33:03;;;;;;;20.90;6.25;;;;;;;1.47;79.56;99882.00;4944873;28;20481;-35
2021/01/26 05:35:30;;;;;;;13.43;4.10;;;;;;;1.46;79.59;99879.34;4978586;28;20034;-34
2021/01/26 05:37:58;;;;;;;15.10;5.25;;;;;;;1.45;79.28;99877.59;4978339;28;20050;-35
2021/01/26 05:40:31;;;;;;;16.50;4.38;;;;;;;1.44;79.52;99874.19;4977896;28;20042;-39
2021/01/26 05:43:03;;;;;;;7.57;3.92;;;;;;;1.47;79.56;99891.31;4961041;28;20035;-42
2021/01/26 05:45:47;;;;;;;;;;;;;;;1.49;79.50;99893.16;4978076;28;20039;-34
2021/01/26 05:48:21;;;;;;;8.80;3.95;;;;;;;1.48;79.46;99886.28;4977598;28;19964;-34
2021/01/26 05:50:51;;;;;;;12.07;3.53;;;;;;;1.48;79.43;99901.59;4976942;28;20065;-34
2021/01/26 05:53:25;;;;;;;14.93;3.83;;;;;;;1.48;79.42;99899.06;4976820;28;20092;-34
2021/01/26 05:56:09;;;;;;;12.63;3.95;;;;;;;1.47;79.29;99893.88;4977947;28;20035;-34
2021/01/26 05:58:43;;;;;;;7.40;3.53;;;;;;;1.47;79.63;99899.88;4977711;28;20058;-34
2021/01/26 06:01:28;;;;;;;11.63;3.72;;;;;;;1.48;79.38;99900.75;4976210;28;20031;-34
2021/01/26 06:04:13;;;;;;;8.98;3.83;;;;;;;1.48;79.55;99905.84;4977918;28;20058;-33
2021/01/26 06:07:00;;;;;;;13.65;4.10;;;;;;;1.47;79.61;99905.00;4944103;28;20038;-34
2021/01/26 06:09:39;;;;;;;12.00;4.25;;;;;;;1.46;79.21;99916.00;4977761;28;20035;-34
2021/01/26 06:12:08;;;;;;;15.20;4.25;;;;;;;1.47;79.37;99917.75;4960403;28;20050;-34
2021/01/26 06:14:35;;;;;;;16.58;3.65;;;;;;;1.48;79.06;99922.03;4977171;28;20046;-34
2021/01/26 06:17:12;;;;;;;11.18;4.18;;;;;;;1.49;79.25;99928.91;4976978;28;20042;-34
2021/01/26 06:19:38;;;;;;;19.45;4.38;;;;;;;1.51;79.39;99924.75;4977223;28;20445;-34
2021/01/26 06:22:05;;;;;;;18.02;4.93;;;;;;;1.52;79.42;99926.50;4977097;28;20050;-34
2021/01/26 06:24:35;;;;;;;8.45;4.35;;;;;;;1.49;79.17;99925.50;4977348;28;20098;-34
2021/01/26 06:27:09;;;;;;;11.30;4.50;;;;;;;1.47;79.34;99921.97;4977475;28;20038;-34
2021/01/26 06:29:52;;;;;;;14.20;4.18;;;;;;;1.48;79.37;99922.03;4960029;28;20039;-34
2021/01/26 06:32:35;;;;;;;7.47;3.53;;;;;;;1.50;79.37;99928.09;4977333;28;20041;-34
2021/01/26 06:35:08;;;;;;;14.68;4.93;;;;;;;1.48;79.32;99934.81;4977172;28;20031;-34
2021/01/26 06:37:52;;;;;;;9.60;3.75;;;;;;;1.49;79.17;99948.47;4976790;28;20114;-34
2021/01/26 06:40:43;;;;;;;12.43;3.80;;;;;;;1.49;79.19;99949.34;4960391;28;20053;-34
2021/01/26 06:43:26;;;;;;;11.35;3.22;;;;;;;1.49;79.36;99945.94;4977416;28;20058;-34
2021/01/26 06:46:01;;;;;;;9.63;3.53;;;;;;;1.51;79.21;99949.44;4976873;28;20114;-34
2021/01/26 06:48:48;;;;;;;8.98;3.65;;;;;;;1.54;79.50;99954.72;4975691;28;20070;-34
2021/01/26 06:51:40;;;;;;;10.57;3.15;;;;;;;1.53;79.21;99958.06;4976744;28;20565;-34
2021/01/26 06:54:06;;;;;;;6.45;2.92;;;;;;;1.53;79.35;99965.72;4976754;28;20094;-34
2021/01/26 06:56:53;;;;;;;8.25;3.30;;;;;;;1.52;78.83;99967.38;4976888;28;20039;-34
2021/01/26 06:59:44;;;;;;;7.38;3.55;;;;;;;1.51;79.00;99974.97;4976709;28;20097;-34
2021/01/26 07:02:42;;;;;;;13.07;4.10;;;;;;;1.50;78.94;99979.19;4948189;28;20051;-34
2021/01/26 07:05:52;;;;;;;9.68;3.85;;;;;;;1.50;79.09;99975.78;4975885;28;20126;-34
2021/01/26 07:08:37;;;;;;;10.32;3.72;;;;;;;1.49;79.31;99989.34;4931662;28;20070;-34
2021/01/26 07:11:22;;;;;;;7.85;3.35;;;;;;;1.48;79.31;99993.56;4976565;28;20031;-34
2021/01/26 07:14:11;;;;;;;8.18;3.45;;;;;;;1.46;78.94;100001.94;4976662;28;20041;-34
2021/01/26 07:16:59;;;;;;;7.03;3.78;;;;;;;1.45;78.99;99998.53;4976403;28;20039;-34
2021/01/26 07:19:55;;;;;;;9.57;2.95;;;;;;;1.47;78.58;100001.16;4958847;28;20073;-34
2021/01/26 07:22:48;;;;;;;8.18;3.50;;;;;;;1.42;78.84;100006.03;4976381;28;20522;-34
2021/01/26 07:25:44;;;;;;;13.50;4.20;;;;;;;1.43;78.74;100009.44;4975352;28;20043;-33
2021/01/26 07:28:30;;;;;;;10.70;4.25;;;;;;;1.43;79.26;100015.47;4976014;28;20073;-34
2021/01/26 07:31:08;;;;;;;9.20;3.58;;;;;;;1.47;79.28;100022.50;4976428;28;20047;-34
2021/01/26 07:33:55;;;;;;;11.38;3.50;;;;;;;1.49;79.16;100027.66;4975682;28;20066;-34
2021/01/26 07:36:37;;;;;;;10.27;4.00;;;;;;;1.46;79.24;100019.84;4975739;28;20039;-34
2021/01/26 07:39:16;;;;;;;9.98;4.10;;;;;;;1.48;79.32;100029.31;4976432;28;20042;-35
2021/01/26 07:42:08;;;;;;;10.55;4.22;;;;;;;1.48;79.25;100039.53;4976027;28;20039;-34
2021/01/26 07:44:52;;;;;;;10.85;4.70;;;;;;;1.41;78.98;100042.59;4958769;28;20125;-34
2021/01/26 07:47:24;;;;;;;6.93;3.13;;;;;;;1.42;79.41;100051.13;4959237;28;20057;-35
2021/01/26 07:50:02;;;;;;;9.13;3.95;;;;;;;1.45;79.23;100051.28;4976032;28;20034;-35
2021/01/26 07:52:32;;;;;;;9.85;3.40;;;;;;;1.43;79.14;100056.31;4958174;28;20058;-51
2021/01/26 07:55:12;;;;;;;9.85;4.15;;;;;;;1.45;78.95;100058.94;4975043;28;20042;-34
2021/01/26 07:57:59;;;;;;;15.93;4.78;;;;;;;1.44;79.00;100067.41;4975912;28;20043;-34
2021/01/26 08:00:29;;;;;;;7.70;4.22;;;;;;;1.42;79.02;100069.00;4959563;28;20037;-34
2021/01/26 08:02:57;;;;;;;8.27;3.95;;;;;;;1.42;78.84;100076.66;4975838;28;20134;-33
2021/01/26 08:06:04;;;;;;;9.52;4.18;;;;;;;1.43;79.09;100078.41;4975821;28;20041;-34
2021/01/26 08:08:36;;;;;;;11.48;4.97;;;;;;;1.41;79.01;100080.91;4900051;29;20055;-34
2021/01/26 08:11:11;;;;;;;12.90;4.88;;;;;;;1.44;79.07;100083.63;4916156;29;20044;-34
2021/01/26 08:13:48;;;;;;;11.82;4.60;;;;;;;1.42;79.06;100086.88;4950368;28;20047;-34
2021/01/26 08:16:30;;;;;;;14.48;5.05;;;;;;;1.44;78.97;100085.28;4958584;28;20063;-34
2021/01/26 08:19:03;;;;;;;11.50;4.28;;;;;;;1.42;79.11;100082.66;4975328;28;20117;-33
2021/01/26 08:21:42;;;;;;;10.73;5.35;;;;;;;1.41;79.03;100088.56;4974136;28;20065;-33
2021/01/26 08:24:11;;;;;;;8.68;4.30;;;;;;;1.43;78.88;100092.09;4957648;28;20125;-33
2021/01/26 08:26:40;;;;;;;11.23;4.78;;;;;;;1.47;79.27;100099.13;4975146;28;20086;-34
2021/01/26 08:29:06;;;;;;;11.82;4.03;;;;;;;1.46;78.99;100105.03;4975388;28;20066;-33
2021/01/26 08:31:40;;;;;;;10.98;4.47;;;;;;;1.43;78.97;100101.41;4974947;28;20521;-33
2021/01/26 08:34:36;;;;;;;16.27;6.30;;;;;;;1.45;79.03;100104.91;4974254;28;20122;-34
2021/01/26 08:37:11;;;;;;;9.95;5.03;;;;;;;1.47;79.28;100098.22;4973844;28;20038;-34
2021/01/26 08:39:41;;;;;;;11.38;4.32;;;;;;;1.48;79.33;100095.75;4974877;28;20126;-33
2021/01/26 08:42:36;;;;;;;17.48;4.78;;;;;;;1.50;79.25;100094.16;4974569;28;20038;-34
2021/01/26 08:45:04;;;;;;;7.57;4.10;;;;;;;1.51;79.48;100101.03;4974786;28;20045;-33
2021/01/26 08:47:40;;;;;;;12.25;5.82;;;;;;;1.49;79.01;100099.19;4974779;28;20479;-34
2021/01/26 08:50:33;;;;;;;17.13;4.32;;;;;;;1.45;78.99;100102.38;4974820;28;20043;-34
2021/01/26 08:53:23;;;;;;;11.35;5.03;;;;;;;1.45;79.19;100110.94;4974308;28;20495;-33
2021/01/26 08:55:51;;;;;;;11.10;5.38;;;;;;;1.46;79.08;100111.78;4941682;28;20520;-34
2021/01/26 08:58:43;;;;;;;10.00;4.05;;;;;;;1.43;79.22;100109.97;4974752;28;20038;-33
2021/01/26 09:01:35;;;;;;;10.93;4.53;;;;;;;1.47;79.37;100118.66;4974757;28;20039;-33
2021/01/26 09:04:12;;;;;;;9.80;3.97;;;;;;;1.49;79.35;100109.41;4969854;28;20058;-33
2021/01/26 09:06:43;;;;;;;11.43;4.60;;;;;;;1.50;79.33;100117.13;4974461;28;20046;-34
2021/01/26 09:09:11;;;;;;;13.77;5.25;;;;;;;1.52;79.44;100114.69;4957637;28;20038;-34
2021/01/26 09:11:45;;;;;;;9.05;4.07;;;;;;;1.52;78.82;100120.66;4974490;28;20042;-34
2021/01/26 09:14:11;;;;;;;8.38;4.28;;;;;;;1.51;79.27;100128.25;4957207;28;20490;-34
2021/01/26 09:16:41;;;;;;;13.48;5.30;;;;;;;1.56;79.53;100123.38;4974587;28;20150;-33
2021/01/26 09:19:20;;;;;;;7.28;4.35;;;;;;;1.56;79.76;100120.81;4957399;28;20038;-34
2021/01/26 09:21:54;;;;;;;7.43;4.72;;;;;;;1.54;79.49;100118.22;4956877;28;20125;-34
2021/01/26 09:24:25;;;;;;;;;;;;;;;1.57;79.37;100128.56;4974571;28;20039;-33
2021/01/26 09:26:53;;;;;;;8.75;4.55;;;;;;;1.56;79.51;100138.72;4974430;28;19914;-33
2021/01/26 09:29:26;;;;;;;9.35;3.78;;;;;;;1.58;79.35;100137.13;4957066;28;20117;-34
2021/01/26 09:31:53;;;;;;;8.65;4.20;;;;;;;1.58;79.26;100149.91;4974190;28;20483;-33
2021/01/26 09:34:27;;;;;;;10.85;3.67;;;;;;;1.58;79.25;100149.91;4974355;28;20034;-33
2021/01/26 09:37:11;;;;;;;10.18;4.57;;;;;;;1.59;78.87;100157.63;4974589;28;20102;-33
2021/01/26 09:39:37;;;;;;;8.10;3.42;;;;;;;1.61;79.24;100162.84;4957146;28;20043;-34
2021/01/26 09:42:18;;;;;;;9.18;3.92;;;;;;;1.62;79.44;100164.59;4957332;28;20497;-34
2021/01/26 09:45:06;;;;;;;7.40;4.10;;;;;;;1.62;79.34;100160.34;4956899;28;20526;-33
2021/01/26 09:47:35;;;;;;;10.63;3.60;;;;;;;1.67;79.21;100173.38;4974221;28;20483;-33
2021/01/26 09:50:09;;;;;;;10.35;4.32;;;;;;;1.64;79.08;100175.75;4974246;28;20058;-33
2021/01/26 09:52:36;;;;;;;9.40;4.53;;;;;;;1.62;79.52;100170.56;4956956;28;20049;-34
2021/01/26 09:55:06;;;;;;;6.63;3.88;;;;;;;1.63;78.84;100176.59;4972875;28;20438;-33
2021/01/26 09:57:32;;;;;;;8.73;3.53;;;;;;;1.62;79.24;100187.59;4957203;28;20046;-34
2021/01/26 10:00:07;;;;;;;8.70;3.60;;;;;;;1.65;79.25;100187.75;4974901;28;20085;-34
2021/01/26 10:02:36;;;;;;;7.40;3.78;;;;;;;1.65;79.16;100182.63;4961055;28;20059;-38
2021/01/26 10:05:02;;;;;;;10.68;4.95;;;;;;;1.67;79.60;100191.25;4945000;28;20042;-46
2021/01/26 10:07:28;;;;;;;11.50;3.42;;;;;;;1.70;79.13;100199.09;4977818;28;20098;-45
2021/01/26 10:10:12;;;;;;;7.28;3.05;;;;;;;1.71;79.10;100200.00;4977813;28;20434;-33
2021/01/26 10:12:39;;;;;;;5.60;3.35;;;;;;;1.71;78.97;100200.00;4976187;28;20062;-33
2021/01/26 10:15:26;;;;;;;8.43;3.90;;;;;;;1.71;79.15;100198.31;4977592;28;20088;-33
2021/01/26 10:18:03;;;;;;;6.47;3.42;;;;;;;1.70;79.20;100200.78;4977874;28;20066;-33
2021/01/26 10:20:48;;;;;;;7.22;3.95;;;;;;;1.73;79.18;100200.94;4977594;28;20495;-33
2021/01/26 10:23:22;;;;;;;6.20;3.55;;;;;;;1.72;79.19;100207.72;4977961;28;20134;-33
2021/01/26 10:25:49;;;;;;;7.43;4.07;;;;;;;1.76;78.93;100213.88;4977338;28;20081;-34
2021/01/26 10:28:27;;;;;;;9.38;3.60;;;;;;;1.76;79.22;100213.88;4959841;28;20122;-34
2021/01/26 10:30:55;;;;;;;11.45;4.72;;;;;;;1.76;79.16;100216.44;4977568;28;20054;-33
2021/01/26 10:33:39;;;;;;;5.78;3.78;;;;;;;1.78;79.15;100215.75;4976913;28;20034;-33
2021/01/26 10:36:29;;;;;;;10.15;3.70;;;;;;;1.78;79.17;100202.97;4959451;28;20034;-34
2021/01/26 10:39:22;;;;;;;9.15;3.72;;;;;;;1.81;79.10;100210.78;4960150;28;20046;-33
2021/01/26 10:41:56;;;;;;;10.90;4.50;;;;;;;1.83;79.23;100214.28;4977173;28;20079;-33
2021/01/26 10:44:28;;;;;;;10.52;3.95;;;;;;;1.87;79.27;100212.78;4976976;28;20043;-33
2021/01/26 10:46:54;;;;;;;13.68;4.30;;;;;;;1.94;79.50;100219.13;4976590;28;20034;-33
2021/01/26 10:49:29;;;;;;;13.88;5.82;;;;;;;1.97;79.45;100211.59;4976937;28;20062;-34
2021/01/26 10:51:56;;;;;;;12.90;5.20;;;;;;;2.05;79.66;100210.34;4959475;28;20039;-33
2021/01/26 10:54:27;;;;;;;9.35;3.92;;;;;;;2.10;79.46;100208.03;4959623;28;20070;-34
2021/01/26 10:56:52;;;;;;;7.18;3.65;;;;;;;2.16;79.36;100207.47;4959457;28;20058;-34
2021/01/26 10:59:23;;;;;;;7.80;4.13;;;;;;;2.19;79.46;100217.84;4977264;28;20081;-34
2021/01/26 11:01:49;;;;;;;9.20;4.90;;;;;;;2.21;79.52;100208.59;4976752;28;20050;-34
2021/01/26 11:04:18;;;;;;;8.40;5.05;;;;;;;2.20;79.29;100201.72;4976591;28;20101;-34
2021/01/26 11:06:47;;;;;;;11.68;5.10;;;;;;;2.21;79.33;100204.34;4976394;28;20042;-34
2021/01/26 11:09:15;;;;;;;11.13;3.70;;;;;;;2.21;78.91;100206.03;4959054;28;20525;-33
2021/01/26 11:11:45;;;;;;;16.02;4.68;;;;;;;2.22;79.08;100205.25;4975010;28;20043;-34
2021/01/26 11:14:13;;;;;;;9.43;3.88;;;;;;;2.23;79.42;100202.75;4976804;28;20043;-33
2021/01/26 11:16:41;;;;;;;11.05;4.20;;;;;;;2.26;79.57;100204.56;4943513;28;20125;-33
2021/01/26 11:19:12;;;;;;;13.90;5.05;;;;;;;2.26;79.57;100207.13;4976366;28;20042;-33
2021/01/26 11:21:38;;;;;;;9.80;3.67;;;;;;;2.25;79.47;100206.25;4975992;28;20130;-34
2021/01/26 11:24:03;;;;;;;6.63;3.67;;;;;;;2.27;79.61;100201.22;4976219;28;20617;-33
2021/01/26 11:26:29;;;;;;;12.73;5.10;;;;;;;2.28;79.42;100205.53;4958899;28;20034;-33
2021/01/26 11:28:54;;;;;;;9.18;4.10;;;;;;;2.27;79.61;100204.66;4976225;28;20494;-33
2021/01/26 11:31:20;;;;;;;11.68;4.80;;;;;;;2.28;79.56;100206.44;4976061;28;20035;-33
2021/01/26 11:33:46;;;;;;;7.82;3.90;;;;;;;2.28;79.18;100200.41;4976246;28;20039;-33
2021/01/26 11:36:12;;;;;;;9.05;3.72;;;;;;;2.28;79.14;100202.97;4958524;28;20042;-33
2021/01/26 11:38:39;;;;;;;8.25;3.55;;;;;;;2.29;79.39;100197.06;4975930;28;20490;-33
2021/01/26 11:41:08;;;;;;;9.68;4.72;;;;;;;2.30;79.15;100195.41;4975455;28;20082;-34
2021/01/26 11:43:34;;;;;;;11.68;4.85;;;;;;;2.29;79.01;100191.94;4958658;28;20475;-34
2021/01/26 11:46:00;;;;;;;10.52;5.03;;;;;;;2.30;79.28;100193.72;4975802;28;20130;-33
2021/01/26 11:48:29;;;;;;;14.65;4.40;;;;;;;2.28;79.44;100185.97;4975824;28;20398;-33
2021/01/26 11:50:59;;;;;;;12.93;4.85;;;;;;;2.30;78.94;100188.59;4975926;28;20039;-33
2021/01/26 11:53:30;;;;;;;7.65;4.35;;;;;;;2.28;78.77;100193.66;4958094;28;20490;-34
2021/01/26 11:56:00;;;;;;;8.07;3.72;;;;;;;2.31;78.54;100195.47;4958570;28;20043;-34
2021/01/26 11:58:30;;;;;;;10.75;3.55;;;;;;;2.30;79.19;100188.59;4975790;28;20506;-34
2021/01/26 12:00:59;;;;;;;7.75;3.42;;;;;;;2.34;79.15;100195.63;4958316;28;20118;-34
2021/01/26 12:03:27;;;;;;;7.20;4.28;;;;;;;2.34;79.44;100189.63;4975828;28;20061;-34
2021/01/26 12:05:56;;;;;;;9.02;4.10;;;;;;;2.36;78.76;100193.16;4958175;28;20038;-34
2021/01/26 12:08:27;;;;;;;12.18;4.07;;;;;;;2.36;78.91;100196.59;4958034;28;20521;-34
2021/01/26 12:10:56;;;;;;;8.73;4.05;;;;;;;2.38;78.48;100197.56;4942409;28;20112;-34
2021/01/26 12:13:22;;;;;;;7.25;3.33;;;;;;;2.38;79.07;100195.00;4957931;28;20038;-34